Terminal Aerodrome Forecast
Issued by NWS Duluth, MN

Home | Current Version | Previous Version | Text Only | Print | Product List | Glossary On
Versions: 1 2 3 4 5 6 7 8 9 10 11 12 13 14 15 16 17 18 19 20 21 22 23 24 25
729
FTUS43 KDLH 231311 AAB
TAFINL
TAF AMD
KINL 231311Z 2313/2412 05007G18KT 3SM -RA BR OVC013
      TEMPO 2313/2314 1SM -RA BR OVC007
     FM231600 04011KT P6SM VCSH BKN015
     FM231800 04011KT P6SM VCSH BKN025
     FM232000 05008KT P6SM BKN040
     FM240200 VRB03KT P6SM SCT040
      TEMPO 2409/2412 3SM BR SCT005=

USA.gov is the U.S. government's official web portal to all federal, state and local government web resources and services.